sensor_id;sensor_type;location;lat;lon;timestamp;pressure;altitude;pressure_sealevel;temperature;humidity
11415;BME280;5763;42.714;23.244;2022-12-24T00:00:57;94432.25;;;5.76;73.21
11415;BME280;5763;42.714;23.244;2022-12-24T00:03:24;94433.19;;;5.69;73.91
11415;BME280;5763;42.714;23.244;2022-12-24T00:05:51;94435.38;;;5.74;74.50
11415;BME280;5763;42.714;23.244;2022-12-24T00:08:18;94445.56;;;5.70;74.57
11415;BME280;5763;42.714;23.244;2022-12-24T00:10:49;94443.72;;;5.67;73.65
11415;BME280;5763;42.714;23.244;2022-12-24T00:13:16;94435.22;;;5.65;73.20
11415;BME280;5763;42.714;23.244;2022-12-24T00:15:45;94436.66;;;5.70;74.24
11415;BME280;5763;42.714;23.244;2022-12-24T00:18:12;94435.06;;;5.72;73.15
11415;BME280;5763;42.714;23.244;2022-12-24T00:20:38;94435.91;;;5.69;72.98
11415;BME280;5763;42.714;23.244;2022-12-24T00:23:05;94437.41;;;5.70;72.91
11415;BME280;5763;42.714;23.244;2022-12-24T00:25:32;94434.69;;;5.70;73.40
11415;BME280;5763;42.714;23.244;2022-12-24T00:27:58;94438.28;;;5.67;74.40
11415;BME280;5763;42.714;23.244;2022-12-24T00:30:25;94429.88;;;5.62;73.69
11415;BME280;5763;42.714;23.244;2022-12-24T00:32:53;94431.41;;;5.63;73.75
11415;BME280;5763;42.714;23.244;2022-12-24T00:35:20;94427.59;;;5.60;73.85
11415;BME280;5763;42.714;23.244;2022-12-24T00:37:47;94422.16;;;5.60;73.11
11415;BME280;5763;42.714;23.244;2022-12-24T00:40:16;94426.94;;;5.56;73.17
11415;BME280;5763;42.714;23.244;2022-12-24T00:42:43;94422.16;;;5.44;74.14
11415;BME280;5763;42.714;23.244;2022-12-24T00:45:10;94423.00;;;5.57;73.45
11415;BME280;5763;42.714;23.244;2022-12-24T00:47:38;94427.66;;;5.57;72.71
11415;BME280;5763;42.714;23.244;2022-12-24T00:50:07;94433.38;;;5.62;73.29
11415;BME280;5763;42.714;23.244;2022-12-24T00:52:34;94432.00;;;5.54;73.38
11415;BME280;5763;42.714;23.244;2022-12-24T00:55:01;94433.38;;;5.46;72.94
11415;BME280;5763;42.714;23.244;2022-12-24T00:57:28;94440.72;;;5.46;73.11
11415;BME280;5763;42.714;23.244;2022-12-24T00:59:55;94437.28;;;5.45;72.72
11415;BME280;5763;42.714;23.244;2022-12-24T01:02:22;94448.13;;;5.45;72.53
11415;BME280;5763;42.714;23.244;2022-12-24T01:04:49;94443.53;;;5.42;72.10
11415;BME280;5763;42.714;23.244;2022-12-24T01:07:35;94444.53;;;5.48;72.17
11415;BME280;5763;42.714;23.244;2022-12-24T01:10:03;94444.72;;;5.41;72.19
11415;BME280;5763;42.714;23.244;2022-12-24T01:12:30;94452.78;;;5.45;72.77
11415;BME280;5763;42.714;23.244;2022-12-24T01:14:57;94455.28;;;5.36;72.97
11415;BME280;5763;42.714;23.244;2022-12-24T01:17:24;94451.34;;;5.40;72.75
11415;BME280;5763;42.714;23.244;2022-12-24T01:19:50;94441.41;;;5.34;72.74
11415;BME280;5763;42.714;23.244;2022-12-24T01:22:17;94437.91;;;5.33;74.18
11415;BME280;5763;42.714;23.244;2022-12-24T01:24:45;94429.03;;;5.33;74.17
11415;BME280;5763;42.714;23.244;2022-12-24T01:27:12;94424.44;;;5.30;73.34
11415;BME280;5763;42.714;23.244;2022-12-24T01:29:39;94426.81;;;5.28;72.71
11415;BME280;5763;42.714;23.244;2022-12-24T01:32:06;94434.75;;;5.19;73.36
11415;BME280;5763;42.714;23.244;2022-12-24T01:34:32;94442.47;;;5.20;73.08
11415;BME280;5763;42.714;23.244;2022-12-24T01:36:59;94440.78;;;5.10;72.94
11415;BME280;5763;42.714;23.244;2022-12-24T01:39:26;94443.41;;;5.14;74.14
11415;BME280;5763;42.714;23.244;2022-12-24T01:41:54;94437.97;;;5.14;75.30
11415;BME280;5763;42.714;23.244;2022-12-24T01:44:40;94420.94;;;5.13;73.92
11415;BME280;5763;42.714;23.244;2022-12-24T01:47:10;94424.50;;;5.10;73.42
11415;BME280;5763;42.714;23.244;2022-12-24T01:49:40;94427.47;;;5.16;76.57
11415;BME280;5763;42.714;23.244;2022-12-24T01:52:10;94434.59;;;5.26;77.95
11415;BME280;5763;42.714;23.244;2022-12-24T01:54:42;94435.38;;;5.26;78.40
11415;BME280;5763;42.714;23.244;2022-12-24T01:57:15;94436.06;;;5.30;78.09
11415;BME280;5763;42.714;23.244;2022-12-24T01:59:46;94433.41;;;5.27;79.02
11415;BME280;5763;42.714;23.244;2022-12-24T02:02:15;94422.66;;;5.39;78.97
11415;BME280;5763;42.714;23.244;2022-12-24T02:04:45;94420.47;;;5.50;78.63
11415;BME280;5763;42.714;23.244;2022-12-24T02:07:16;94423.25;;;5.47;78.62
11415;BME280;5763;42.714;23.244;2022-12-24T02:09:43;94418.88;;;5.53;75.90
11415;BME280;5763;42.714;23.244;2022-12-24T02:12:11;94419.19;;;5.39;75.16
11415;BME280;5763;42.714;23.244;2022-12-24T02:14:38;94416.13;;;5.37;74.92
11415;BME280;5763;42.714;23.244;2022-12-24T02:17:12;94419.53;;;5.41;74.63
11415;BME280;5763;42.714;23.244;2022-12-24T02:20:02;94431.66;;;5.36;77.17
11415;BME280;5763;42.714;23.244;2022-12-24T02:22:51;94426.41;;;5.45;74.57
11415;BME280;5763;42.714;23.244;2022-12-24T02:25:37;94419.59;;;5.21;75.10
11415;BME280;5763;42.714;23.244;2022-12-24T02:28:17;94419.84;;;5.27;73.60
11415;BME280;5763;42.714;23.244;2022-12-24T02:30:55;94427.31;;;5.23;73.95
11415;BME280;5763;42.714;23.244;2022-12-24T02:33:27;94430.03;;;5.23;76.22
11415;BME280;5763;42.714;23.244;2022-12-24T02:36:01;94431.28;;;5.18;75.24
11415;BME280;5763;42.714;23.244;2022-12-24T02:38:32;94426.44;;;5.10;75.37
11415;BME280;5763;42.714;23.244;2022-12-24T02:41:02;94429.50;;;5.12;75.56
11415;BME280;5763;42.714;23.244;2022-12-24T02:43:34;94418.06;;;5.04;75.57
11415;BME280;5763;42.714;23.244;2022-12-24T02:46:07;94417.38;;;5.16;74.70
11415;BME280;5763;42.714;23.244;2022-12-24T02:48:36;94414.84;;;5.09;74.75
11415;BME280;5763;42.714;23.244;2022-12-24T02:51:08;94407.03;;;5.11;75.40
11415;BME280;5763;42.714;23.244;2022-12-24T02:53:35;94401.63;;;5.11;74.49
11415;BME280;5763;42.714;23.244;2022-12-24T02:56:16;94407.88;;;5.08;73.06
11415;BME280;5763;42.714;23.244;2022-12-24T02:58:55;94407.25;;;5.01;72.76
11415;BME280;5763;42.714;23.244;2022-12-24T03:01:35;94402.28;;;4.99;72.52
11415;BME280;5763;42.714;23.244;2022-12-24T03:04:13;94397.41;;;4.91;72.83
11415;BME280;5763;42.714;23.244;2022-12-24T03:07:06;94403.28;;;4.89;73.07
11415;BME280;5763;42.714;23.244;2022-12-24T03:09:46;94397.66;;;4.80;73.48
11415;BME280;5763;42.714;23.244;2022-12-24T03:12:21;94398.47;;;4.77;74.16
11415;BME280;5763;42.714;23.244;2022-12-24T03:14:50;94402.16;;;4.87;73.00
11415;BME280;5763;42.714;23.244;2022-12-24T03:17:19;94403.41;;;4.82;73.23
11415;BME280;5763;42.714;23.244;2022-12-24T03:19:46;94399.97;;;4.82;73.28
11415;BME280;5763;42.714;23.244;2022-12-24T03:22:15;94395.97;;;4.86;73.11
11415;BME280;5763;42.714;23.244;2022-12-24T03:24:43;94398.19;;;4.91;72.96
11415;BME280;5763;42.714;23.244;2022-12-24T03:27:11;94400.69;;;4.82;73.09
11415;BME280;5763;42.714;23.244;2022-12-24T03:29:39;94396.56;;;4.78;72.14
11415;BME280;5763;42.714;23.244;2022-12-24T03:32:06;94405.59;;;4.71;72.45
11415;BME280;5763;42.714;23.244;2022-12-24T03:34:35;94404.72;;;4.58;72.38
11415;BME280;5763;42.714;23.244;2022-12-24T03:37:01;94401.06;;;4.65;72.62
11415;BME280;5763;42.714;23.244;2022-12-24T03:39:28;94401.91;;;4.62;72.59
11415;BME280;5763;42.714;23.244;2022-12-24T03:41:55;94415.88;;;4.60;72.75
11415;BME280;5763;42.714;23.244;2022-12-24T03:44:21;94416.22;;;4.62;72.59
11415;BME280;5763;42.714;23.244;2022-12-24T03:46:48;94419.91;;;4.52;72.62
11415;BME280;5763;42.714;23.244;2022-12-24T03:49:15;94397.19;;;4.46;72.56
11415;BME280;5763;42.714;23.244;2022-12-24T03:51:43;94416.72;;;4.57;72.00
11415;BME280;5763;42.714;23.244;2022-12-24T03:54:09;94421.16;;;4.48;72.93
11415;BME280;5763;42.714;23.244;2022-12-24T03:56:36;94422.97;;;4.54;72.12
11415;BME280;5763;42.714;23.244;2022-12-24T03:59:03;94425.28;;;4.56;72.20
11415;BME280;5763;42.714;23.244;2022-12-24T04:01:30;94428.50;;;4.47;72.58
11415;BME280;5763;42.714;23.244;2022-12-24T04:03:56;94429.13;;;4.55;72.37
11415;BME280;5763;42.714;23.244;2022-12-24T04:06:23;94440.75;;;4.55;72.31
11415;BME280;5763;42.714;23.244;2022-12-24T04:08:51;94440.41;;;4.53;72.95
11415;BME280;5763;42.714;23.244;2022-12-24T04:11:18;94440.41;;;4.53;72.53
11415;BME280;5763;42.714;23.244;2022-12-24T04:13:45;94444.09;;;4.43;72.99
11415;BME280;5763;42.714;23.244;2022-12-24T04:16:14;94438.25;;;4.45;72.87
11415;BME280;5763;42.714;23.244;2022-12-24T04:18:41;94438.03;;;4.55;72.63
11415;BME280;5763;42.714;23.244;2022-12-24T04:21:09;94436.53;;;4.54;72.22
11415;BME280;5763;42.714;23.244;2022-12-24T04:23:37;94450.00;;;4.58;72.06
11415;BME280;5763;42.714;23.244;2022-12-24T04:26:07;94443.31;;;4.43;73.33
11415;BME280;5763;42.714;23.244;2022-12-24T04:28:35;94449.69;;;4.52;72.71
11415;BME280;5763;42.714;23.244;2022-12-24T04:31:03;94449.69;;;4.52;73.36
11415;BME280;5763;42.714;23.244;2022-12-24T04:33:30;94456.31;;;4.51;73.37
11415;BME280;5763;42.714;23.244;2022-12-24T04:35:58;94470.88;;;4.57;72.42
11415;BME280;5763;42.714;23.244;2022-12-24T04:38:25;94458.31;;;4.47;72.55
11415;BME280;5763;42.714;23.244;2022-12-24T04:40:57;94457.84;;;4.52;72.21
11415;BME280;5763;42.714;23.244;2022-12-24T04:43:26;94454.44;;;4.48;76.77
11415;BME280;5763;42.714;23.244;2022-12-24T04:45:53;94450.81;;;4.55;78.53
11415;BME280;5763;42.714;23.244;2022-12-24T04:48:20;94448.41;;;4.60;79.04
11415;BME280;5763;42.714;23.244;2022-12-24T04:50:47;94442.97;;;4.60;78.54
11415;BME280;5763;42.714;23.244;2022-12-24T04:53:13;94449.44;;;4.66;78.98
11415;BME280;5763;42.714;23.244;2022-12-24T04:55:43;94445.69;;;4.60;79.55
11415;BME280;5763;42.714;23.244;2022-12-24T04:58:10;94438.88;;;4.52;79.54
11415;BME280;5763;42.714;23.244;2022-12-24T05:00:38;94442.75;;;4.51;79.98
11415;BME280;5763;42.714;23.244;2022-12-24T05:03:05;94436.13;;;4.56;80.41
11415;BME280;5763;42.714;23.244;2022-12-24T05:05:32;94438.38;;;4.57;80.54
11415;BME280;5763;42.714;23.244;2022-12-24T05:07:59;94435.25;;;4.59;80.69
11415;BME280;5763;42.714;23.244;2022-12-24T05:10:26;94430.13;;;4.64;79.63
11415;BME280;5763;42.714;23.244;2022-12-24T05:12:53;94421.69;;;4.78;77.14
11415;BME280;5763;42.714;23.244;2022-12-24T05:15:20;94421.44;;;4.73;76.40
11415;BME280;5763;42.714;23.244;2022-12-24T05:17:48;94412.94;;;4.71;76.52
11415;BME280;5763;42.714;23.244;2022-12-24T05:20:15;94417.94;;;4.72;76.58
11415;BME280;5763;42.714;23.244;2022-12-24T05:22:42;94417.81;;;4.79;75.97
11415;BME280;5763;42.714;23.244;2022-12-24T05:25:30;94427.47;;;4.80;75.32
11415;BME280;5763;42.714;23.244;2022-12-24T05:28:15;94426.34;;;4.78;75.23
11415;BME280;5763;42.714;23.244;2022-12-24T05:30:42;94433.72;;;4.77;74.95
11415;BME280;5763;42.714;23.244;2022-12-24T05:33:11;94439.63;;;4.72;74.74
11415;BME280;5763;42.714;23.244;2022-12-24T05:35:38;94439.75;;;4.85;74.01
11415;BME280;5763;42.714;23.244;2022-12-24T05:38:04;94427.19;;;4.75;74.58
11415;BME280;5763;42.714;23.244;2022-12-24T05:40:31;94430.25;;;4.77;74.37
11415;BME280;5763;42.714;23.244;2022-12-24T05:42:58;94435.41;;;4.71;74.64
11415;BME280;5763;42.714;23.244;2022-12-24T05:45:24;94432.28;;;4.73;74.24
11415;BME280;5763;42.714;23.244;2022-12-24T05:47:51;94425.59;;;4.77;74.41
11415;BME280;5763;42.714;23.244;2022-12-24T05:50:19;94415.44;;;4.81;73.30
11415;BME280;5763;42.714;23.244;2022-12-24T05:52:46;94419.06;;;4.75;72.98
11415;BME280;5763;42.714;23.244;2022-12-24T05:55:13;94430.31;;;4.73;74.22
11415;BME280;5763;42.714;23.244;2022-12-24T05:57:40;94429.06;;;4.78;74.24
11415;BME280;5763;42.714;23.244;2022-12-24T06:00:08;94431.69;;;4.81;74.33
11415;BME280;5763;42.714;23.244;2022-12-24T06:02:34;94429.31;;;4.83;73.16
11415;BME280;5763;42.714;23.244;2022-12-24T06:05:01;94433.22;;;4.82;72.89
11415;BME280;5763;42.714;23.244;2022-12-24T06:07:29;94434.25;;;4.88;72.78
11415;BME280;5763;42.714;23.244;2022-12-24T06:09:56;94439.75;;;4.85;72.88
11415;BME280;5763;42.714;23.244;2022-12-24T06:12:23;94435.44;;;4.87;73.03
11415;BME280;5763;42.714;23.244;2022-12-24T06:14:49;94445.66;;;4.80;73.32
11415;BME280;5763;42.714;23.244;2022-12-24T06:17:16;94441.72;;;4.84;73.05
11415;BME280;5763;42.714;23.244;2022-12-24T06:19:43;94446.97;;;4.91;73.21
11415;BME280;5763;42.714;23.244;2022-12-24T06:22:10;94446.66;;;4.89;73.11
11415;BME280;5763;42.714;23.244;2022-12-24T06:24:38;94467.97;;;4.87;73.85
11415;BME280;5763;42.714;23.244;2022-12-24T06:27:04;94449.19;;;4.96;73.30
11415;BME280;5763;42.714;23.244;2022-12-24T06:29:31;94447.59;;;4.99;73.69
11415;BME280;5763;42.714;23.244;2022-12-24T06:31:58;94444.81;;;5.02;73.39
11415;BME280;5763;42.714;23.244;2022-12-24T06:34:25;94447.31;;;4.93;73.83
11415;BME280;5763;42.714;23.244;2022-12-24T06:36:52;94453.31;;;5.04;73.35
11415;BME280;5763;42.714;23.244;2022-12-24T06:39:18;94464.16;;;5.04;73.04
11415;BME280;5763;42.714;23.244;2022-12-24T06:41:46;94468.38;;;5.05;73.43
11415;BME280;5763;42.714;23.244;2022-12-24T06:44:13;94470.50;;;5.14;73.19
11415;BME280;5763;42.714;23.244;2022-12-24T06:46:40;94465.53;;;5.28;72.72
11415;BME280;5763;42.714;23.244;2022-12-24T06:49:07;94468.53;;;5.34;72.54
11415;BME280;5763;42.714;23.244;2022-12-24T06:51:33;94472.19;;;5.43;72.23
11415;BME280;5763;42.714;23.244;2022-12-24T06:54:00;94473.31;;;5.62;71.88
11415;BME280;5763;42.714;23.244;2022-12-24T06:56:27;94467.28;;;5.70;71.69
11415;BME280;5763;42.714;23.244;2022-12-24T06:58:55;94460.13;;;5.80;71.54
11415;BME280;5763;42.714;23.244;2022-12-24T07:01:21;94472.81;;;5.99;71.49
11415;BME280;5763;42.714;23.244;2022-12-24T07:03:49;94478.16;;;6.18;71.07
11415;BME280;5763;42.714;23.244;2022-12-24T07:06:18;94475.41;;;6.34;71.05
11415;BME280;5763;42.714;23.244;2022-12-24T07:08:45;94474.56;;;6.37;70.70
11415;BME280;5763;42.714;23.244;2022-12-24T07:11:12;94466.38;;;6.53;70.10
11415;BME280;5763;42.714;23.244;2022-12-24T07:13:38;94469.63;;;6.77;69.29
11415;BME280;5763;42.714;23.244;2022-12-24T07:16:07;94474.28;;;6.76;69.14
11415;BME280;5763;42.714;23.244;2022-12-24T07:18:33;94476.78;;;6.71;69.35
11415;BME280;5763;42.714;23.244;2022-12-24T07:21:02;94473.91;;;6.62;69.78
11415;BME280;5763;42.714;23.244;2022-12-24T07:23:29;94473.25;;;6.58;70.19
11415;BME280;5763;42.714;23.244;2022-12-24T07:25:58;94473.66;;;6.56;70.40
11415;BME280;5763;42.714;23.244;2022-12-24T07:28:28;94464.84;;;6.52;71.11
11415;BME280;5763;42.714;23.244;2022-12-24T07:30:55;94485.97;;;6.61;71.20
11415;BME280;5763;42.714;23.244;2022-12-24T07:33:24;94485.53;;;6.62;71.17
11415;BME280;5763;42.714;23.244;2022-12-24T07:35:57;94494.19;;;6.73;70.96
11415;BME280;5763;42.714;23.244;2022-12-24T07:38:25;94474.28;;;6.76;70.99
11415;BME280;5763;42.714;23.244;2022-12-24T07:40:51;94482.47;;;6.89;71.30
11415;BME280;5763;42.714;23.244;2022-12-24T07:43:18;94473.50;;;7.04;70.87
11415;BME280;5763;42.714;23.244;2022-12-24T07:45:45;94488.53;;;7.21;70.74
11415;BME280;5763;42.714;23.244;2022-12-24T07:48:12;94488.69;;;7.30;70.21
11415;BME280;5763;42.714;23.244;2022-12-24T07:50:40;94502.94;;;7.59;69.73
11415;BME280;5763;42.714;23.244;2022-12-24T07:53:07;94501.31;;;7.99;68.93
11415;BME280;5763;42.714;23.244;2022-12-24T07:55:34;94497.59;;;8.18;68.31
11415;BME280;5763;42.714;23.244;2022-12-24T07:58:01;94497.59;;;8.31;67.56
11415;BME280;5763;42.714;23.244;2022-12-24T08:00:28;94496.41;;;8.32;67.46
11415;BME280;5763;42.714;23.244;2022-12-24T08:02:55;94507.09;;;8.26;67.41
11415;BME280;5763;42.714;23.244;2022-12-24T08:05:24;94509.03;;;8.13;67.33
11415;BME280;5763;42.714;23.244;2022-12-24T08:07:52;94509.06;;;7.88;68.26
11415;BME280;5763;42.714;23.244;2022-12-24T08:10:19;94517.78;;;7.83;68.86
11415;BME280;5763;42.714;23.244;2022-12-24T08:12:46;94531.09;;;7.81;69.04
11415;BME280;5763;42.714;23.244;2022-12-24T08:15:13;94517.47;;;7.69;69.50
11415;BME280;5763;42.714;23.244;2022-12-24T08:17:40;94517.03;;;7.58;70.13
11415;BME280;5763;42.714;23.244;2022-12-24T08:20:07;94504.16;;;7.71;70.22
11415;BME280;5763;42.714;23.244;2022-12-24T08:22:34;94495.88;;;7.74;70.02
11415;BME280;5763;42.714;23.244;2022-12-24T08:25:02;94510.81;;;7.82;70.38
11415;BME280;5763;42.714;23.244;2022-12-24T08:27:29;94499.25;;;7.91;70.29
11415;BME280;5763;42.714;23.244;2022-12-24T08:29:56;94497.84;;;7.99;69.66
11415;BME280;5763;42.714;23.244;2022-12-24T08:32:23;94497.31;;;7.91;70.08
11415;BME280;5763;42.714;23.244;2022-12-24T08:34:50;94493.38;;;7.92;69.27
11415;BME280;5763;42.714;23.244;2022-12-24T08:37:16;94488.59;;;7.96;69.65
11415;BME280;5763;42.714;23.244;2022-12-24T08:39:43;94494.91;;;7.93;70.08
11415;BME280;5763;42.714;23.244;2022-12-24T08:42:11;94499.81;;;7.98;69.75
11415;BME280;5763;42.714;23.244;2022-12-24T08:44:38;94515.16;;;8.05;69.01
11415;BME280;5763;42.714;23.244;2022-12-24T08:47:04;94512.44;;;8.05;68.97
11415;BME280;5763;42.714;23.244;2022-12-24T08:49:31;94517.22;;;8.01;70.16
11415;BME280;5763;42.714;23.244;2022-12-24T08:51:58;94506.56;;;7.94;70.37
11415;BME280;5763;42.714;23.244;2022-12-24T08:54:25;94508.84;;;7.95;69.50
11415;BME280;5763;42.714;23.244;2022-12-24T08:56:52;94504.38;;;7.89;69.84
11415;BME280;5763;42.714;23.244;2022-12-24T08:59:20;94514.75;;;7.81;70.50
11415;BME280;5763;42.714;23.244;2022-12-24T09:01:46;94506.09;;;7.95;69.81
11415;BME280;5763;42.714;23.244;2022-12-24T09:04:13;94494.56;;;8.04;69.47
11415;BME280;5763;42.714;23.244;2022-12-24T09:06:40;94497.94;;;7.95;70.39
11415;BME280;5763;42.714;23.244;2022-12-24T09:09:07;94502.41;;;8.02;70.63
11415;BME280;5763;42.714;23.244;2022-12-24T09:11:34;94514.50;;;8.01;71.13
11415;BME280;5763;42.714;23.244;2022-12-24T09:14:01;94508.38;;;8.09;70.92
11415;BME280;5763;42.714;23.244;2022-12-24T09:16:29;94499.53;;;8.18;71.29
11415;BME280;5763;42.714;23.244;2022-12-24T09:18:56;94505.66;;;8.34;71.24
11415;BME280;5763;42.714;23.244;2022-12-24T09:21:24;94497.41;;;8.59;70.58
11415;BME280;5763;42.714;23.244;2022-12-24T09:23:50;94492.78;;;8.69;69.81
11415;BME280;5763;42.714;23.244;2022-12-24T09:26:18;94494.53;;;8.75;69.74
11415;BME280;5763;42.714;23.244;2022-12-24T09:28:45;94497.25;;;8.75;69.27
11415;BME280;5763;42.714;23.244;2022-12-24T09:31:13;94498.97;;;8.82;68.41
11415;BME280;5763;42.714;23.244;2022-12-24T09:33:42;94498.72;;;8.89;67.97
11415;BME280;5763;42.714;23.244;2022-12-24T09:36:10;94493.47;;;8.94;67.61
11415;BME280;5763;42.714;23.244;2022-12-24T09:38:37;94492.25;;;8.95;68.04
11415;BME280;5763;42.714;23.244;2022-12-24T09:41:11;94465.22;;;8.88;68.15
11415;BME280;5763;42.714;23.244;2022-12-24T09:43:44;94465.28;;;8.97;67.98
11415;BME280;5763;42.714;23.244;2022-12-24T09:46:16;94476.56;;;9.08;67.52
11415;BME280;5763;42.714;23.244;2022-12-24T09:48:49;94478.03;;;9.22;67.13
11415;BME280;5763;42.714;23.244;2022-12-24T09:51:23;94474.91;;;9.32;66.35
11415;BME280;5763;42.714;23.244;2022-12-24T09:53:53;94474.84;;;9.23;66.08
11415;BME280;5763;42.714;23.244;2022-12-24T09:56:23;94466.13;;;9.07;66.02
11415;BME280;5763;42.714;23.244;2022-12-24T09:58:55;94466.63;;;8.93;64.76
11415;BME280;5763;42.714;23.244;2022-12-24T10:01:24;94488.88;;;8.91;65.22
11415;BME280;5763;42.714;23.244;2022-12-24T10:03:52;94492.91;;;8.99;65.38
11415;BME280;5763;42.714;23.244;2022-12-24T10:06:21;94486.66;;;8.99;64.92
11415;BME280;5763;42.714;23.244;2022-12-24T10:09:07;94486.16;;;8.91;65.84
11415;BME280;5763;42.714;23.244;2022-12-24T10:11:42;94481.31;;;8.74;65.81
11415;BME280;5763;42.714;23.244;2022-12-24T10:14:27;94473.00;;;8.77;65.61
11415;BME280;5763;42.714;23.244;2022-12-24T10:17:06;94467.38;;;8.72;66.06
11415;BME280;5763;42.714;23.244;2022-12-24T10:19:45;94457.91;;;8.64;65.61
11415;BME280;5763;42.714;23.244;2022-12-24T10:22:21;94460.06;;;8.47;66.20
11415;BME280;5763;42.714;23.244;2022-12-24T10:24:56;94476.59;;;8.53;66.40
11415;BME280;5763;42.714;23.244;2022-12-24T10:27:31;94476.88;;;8.89;65.13
11415;BME280;5763;42.714;23.244;2022-12-24T10:30:02;94475.56;;;9.15;64.40
11415;BME280;5763;42.714;23.244;2022-12-24T10:32:32;94474.31;;;9.37;64.22
11415;BME280;5763;42.714;23.244;2022-12-24T10:35:07;94466.97;;;9.25;64.40
11415;BME280;5763;42.714;23.244;2022-12-24T10:37:44;94462.09;;;8.99;64.87
11415;BME280;5763;42.714;23.244;2022-12-24T10:40:14;94471.69;;;8.82;65.58
11415;BME280;5763;42.714;23.244;2022-12-24T10:42:42;94468.94;;;9.03;64.98
11415;BME280;5763;42.714;23.244;2022-12-24T10:45:15;94453.91;;;9.20;64.15
11415;BME280;5763;42.714;23.244;2022-12-24T10:47:43;94457.53;;;9.17;64.36
11415;BME280;5763;42.714;23.244;2022-12-24T10:50:17;94463.56;;;9.12;64.50
11415;BME280;5763;42.714;23.244;2022-12-24T10:52:47;94460.38;;;9.14;64.52
11415;BME280;5763;42.714;23.244;2022-12-24T10:55:21;94461.66;;;9.22;64.11
11415;BME280;5763;42.714;23.244;2022-12-24T10:57:58;94460.94;;;9.30;63.94
11415;BME280;5763;42.714;23.244;2022-12-24T11:00:26;94471.81;;;9.21;64.40
11415;BME280;5763;42.714;23.244;2022-12-24T11:03:06;94475.75;;;8.99;64.92
11415;BME280;5763;42.714;23.244;2022-12-24T11:05:36;94473.22;;;8.83;65.88
11415;BME280;5763;42.714;23.244;2022-12-24T11:08:05;94470.59;;;8.79;66.40
11415;BME280;5763;42.714;23.244;2022-12-24T11:10:43;94471.19;;;8.74;66.62
11415;BME280;5763;42.714;23.244;2022-12-24T11:13:21;94458.63;;;8.77;66.76
11415;BME280;5763;42.714;23.244;2022-12-24T11:15:59;94452.41;;;8.98;66.02
11415;BME280;5763;42.714;23.244;2022-12-24T11:18:26;94455.56;;;9.18;65.35
11415;BME280;5763;42.714;23.244;2022-12-24T11:20:55;94460.66;;;9.37;65.31
11415;BME280;5763;42.714;23.244;2022-12-24T11:23:25;94459.47;;;9.69;63.79
11415;BME280;5763;42.714;23.244;2022-12-24T11:25:54;94464.81;;;9.81;63.69
11415;BME280;5763;42.714;23.244;2022-12-24T11:28:25;94468.56;;;10.05;63.29
11415;BME280;5763;42.714;23.244;2022-12-24T11:30:59;94471.66;;;11.33;60.00
11415;BME280;5763;42.714;23.244;2022-12-24T11:33:27;94460.84;;;12.92;54.75
11415;BME280;5763;42.714;23.244;2022-12-24T11:36:00;94462.78;;;14.51;48.84
11415;BME280;5763;42.714;23.244;2022-12-24T11:38:28;94459.44;;;15.02;47.69
11415;BME280;5763;42.714;23.244;2022-12-24T11:41:01;94456.91;;;16.31;43.84
11415;BME280;5763;42.714;23.244;2022-12-24T11:43:39;94456.31;;;15.60;44.46
11415;BME280;5763;42.714;23.244;2022-12-24T11:46:18;94443.81;;;14.53;46.69
11415;BME280;5763;42.714;23.244;2022-12-24T11:48:46;94449.09;;;13.73;48.68
11415;BME280;5763;42.714;23.244;2022-12-24T11:51:23;94458.72;;;12.96;50.73
11415;BME280;5763;42.714;23.244;2022-12-24T11:53:57;94439.66;;;12.31;53.37
11415;BME280;5763;42.714;23.244;2022-12-24T11:56:34;94434.31;;;11.95;55.03
11415;BME280;5763;42.714;23.244;2022-12-24T11:59:08;94449.00;;;11.83;55.71
11415;BME280;5763;42.714;23.244;2022-12-24T12:01:48;94433.34;;;12.78;53.61
11415;BME280;5763;42.714;23.244;2022-12-24T12:04:18;94423.22;;;13.36;51.53
11415;BME280;5763;42.714;23.244;2022-12-24T12:06:49;94426.38;;;14.62;48.33
11415;BME280;5763;42.714;23.244;2022-12-24T12:09:20;94424.03;;;15.40;45.76
11415;BME280;5763;42.714;23.244;2022-12-24T12:11:52;94434.97;;;15.09;46.33
11415;BME280;5763;42.714;23.244;2022-12-24T12:14:26;94440.44;;;14.84;46.69
11415;BME280;5763;42.714;23.244;2022-12-24T12:16:57;94434.50;;;14.31;48.14
11415;BME280;5763;42.714;23.244;2022-12-24T12:19:33;94437.91;;;13.62;50.43
11415;BME280;5763;42.714;23.244;2022-12-24T12:22:06;94445.03;;;13.11;52.15
11415;BME280;5763;42.714;23.244;2022-12-24T12:24:43;94442.38;;;12.55;53.97
11415;BME280;5763;42.714;23.244;2022-12-24T12:27:23;94438.91;;;12.22;55.64
11415;BME280;5763;42.714;23.244;2022-12-24T12:29:56;94446.13;;;12.10;55.94
11415;BME280;5763;42.714;23.244;2022-12-24T12:32:38;94431.97;;;12.12;56.31
11415;BME280;5763;42.714;23.244;2022-12-24T12:35:16;94429.69;;;12.10;56.52
11415;BME280;5763;42.714;23.244;2022-12-24T12:37:52;94428.63;;;12.08;56.54
11415;BME280;5763;42.714;23.244;2022-12-24T12:40:29;94433.97;;;12.11;56.68
11415;BME280;5763;42.714;23.244;2022-12-24T12:43:01;94432.19;;;11.99;57.04
11415;BME280;5763;42.714;23.244;2022-12-24T12:45:38;94442.94;;;11.79;57.60
11415;BME280;5763;42.714;23.244;2022-12-24T12:48:17;94446.16;;;11.78;57.52
11415;BME280;5763;42.714;23.244;2022-12-24T12:50:50;94452.28;;;11.73;57.44
11415;BME280;5763;42.714;23.244;2022-12-24T12:53:31;94458.22;;;11.53;58.16
11415;BME280;5763;42.714;23.244;2022-12-24T12:56:09;94455.41;;;11.30;58.97
11415;BME280;5763;42.714;23.244;2022-12-24T12:58:45;94460.00;;;11.06;60.46
11415;BME280;5763;42.714;23.244;2022-12-24T13:01:19;94466.56;;;10.90;60.71
11415;BME280;5763;42.714;23.244;2022-12-24T13:10:45;94471.69;;;10.43;63.49
11415;BME280;5763;42.714;23.244;2022-12-24T13:19:27;94469.97;;;10.10;65.70
11415;BME280;5763;42.714;23.244;2022-12-24T13:22:00;94471.91;;;10.09;66.16
11415;BME280;5763;42.714;23.244;2022-12-24T13:24:28;94483.63;;;10.10;66.02
11415;BME280;5763;42.714;23.244;2022-12-24T13:27:03;94486.38;;;10.10;66.61
11415;BME280;5763;42.714;23.244;2022-12-24T13:29:42;94459.59;;;9.65;66.22
11415;BME280;5763;42.714;23.244;2022-12-24T13:32:46;94482.41;;;10.11;66.92
11415;BME280;5763;42.714;23.244;2022-12-24T13:35:34;94484.97;;;10.05;67.73
11415;BME280;5763;42.714;23.244;2022-12-24T13:44:24;94495.00;;;10.08;68.95